sensor_id;sensor_type;location;lat;lon;timestamp;temperature;humidity
20714;DHT22;10518;50.742;4.226;2022-07-29T00:01:48;20.60;99.90
20714;DHT22;10518;50.742;4.226;2022-07-29T00:04:14;20.60;99.90
20714;DHT22;10518;50.742;4.226;2022-07-29T00:06:39;20.70;99.90
20714;DHT22;10518;50.742;4.226;2022-07-29T00:09:05;20.40;99.90
20714;DHT22;10518;50.742;4.226;2022-07-29T00:11:31;20.30;99.90
20714;DHT22;10518;50.742;4.226;2022-07-29T00:13:56;20.30;99.90
20714;DHT22;10518;50.742;4.226;2022-07-29T00:16:22;20.20;99.90
20714;DHT22;10518;50.742;4.226;2022-07-29T00:18:48;20.20;99.90
20714;DHT22;10518;50.742;4.226;2022-07-29T00:21:14;20.20;99.90
20714;DHT22;10518;50.742;4.226;2022-07-29T00:23:40;20.30;99.90
20714;DHT22;10518;50.742;4.226;2022-07-29T00:26:05;20.40;99.90
20714;DHT22;10518;50.742;4.226;2022-07-29T00:28:31;20.50;99.90
20714;DHT22;10518;50.742;4.226;2022-07-29T00:30:56;20.50;99.90
20714;DHT22;10518;50.742;4.226;2022-07-29T00:33:22;20.40;99.90
20714;DHT22;10518;50.742;4.226;2022-07-29T00:35:49;20.30;99.90
20714;DHT22;10518;50.742;4.226;2022-07-29T00:38:17;20.10;99.90
20714;DHT22;10518;50.742;4.226;2022-07-29T00:40:44;20.00;99.90
20714;DHT22;10518;50.742;4.226;2022-07-29T00:43:12;20.10;99.90
20714;DHT22;10518;50.742;4.226;2022-07-29T00:45:38;20.00;99.90
20714;DHT22;10518;50.742;4.226;2022-07-29T00:48:04;20.10;99.90
20714;DHT22;10518;50.742;4.226;2022-07-29T00:50:31;19.90;99.90
20714;DHT22;10518;50.742;4.226;2022-07-29T00:52:57;20.00;99.90
20714;DHT22;10518;50.742;4.226;2022-07-29T00:55:24;19.90;99.90
20714;DHT22;10518;50.742;4.226;2022-07-29T00:57:50;19.80;99.90
20714;DHT22;10518;50.742;4.226;2022-07-29T01:00:23;19.80;99.90
20714;DHT22;10518;50.742;4.226;2022-07-29T01:02:50;19.70;99.90
20714;DHT22;10518;50.742;4.226;2022-07-29T01:05:20;19.70;99.90
20714;DHT22;10518;50.742;4.226;2022-07-29T01:07:48;19.90;99.90
20714;DHT22;10518;50.742;4.226;2022-07-29T01:10:15;19.90;99.90
20714;DHT22;10518;50.742;4.226;2022-07-29T01:12:43;19.80;99.90
20714;DHT22;10518;50.742;4.226;2022-07-29T01:15:09;19.60;99.90
20714;DHT22;10518;50.742;4.226;2022-07-29T01:17:46;19.60;99.90
20714;DHT22;10518;50.742;4.226;2022-07-29T01:29:04;19.40;99.90
20714;DHT22;10518;50.742;4.226;2022-07-29T01:32:03;19.20;99.90
20714;DHT22;10518;50.742;4.226;2022-07-29T01:37:37;19.20;99.90
20714;DHT22;10518;50.742;4.226;2022-07-29T01:40:05;19.20;99.90
20714;DHT22;10518;50.742;4.226;2022-07-29T01:42:44;19.20;99.90
20714;DHT22;10518;50.742;4.226;2022-07-29T01:45:41;19.10;99.90
20714;DHT22;10518;50.742;4.226;2022-07-29T01:51:12;19.20;99.90
20714;DHT22;10518;50.742;4.226;2022-07-29T01:53:46;19.00;99.90
20714;DHT22;10518;50.742;4.226;2022-07-29T01:56:13;19.00;99.90
20714;DHT22;10518;50.742;4.226;2022-07-29T01:58:41;19.00;99.90
20714;DHT22;10518;50.742;4.226;2022-07-29T02:01:09;18.90;99.90
20714;DHT22;10518;50.742;4.226;2022-07-29T02:03:37;18.80;99.90
20714;DHT22;10518;50.742;4.226;2022-07-29T02:06:05;18.80;99.90
20714;DHT22;10518;50.742;4.226;2022-07-29T02:08:33;19.00;99.90
20714;DHT22;10518;50.742;4.226;2022-07-29T02:11:00;18.90;99.90
20714;DHT22;10518;50.742;4.226;2022-07-29T02:13:28;18.80;99.90
20714;DHT22;10518;50.742;4.226;2022-07-29T02:15:55;18.60;99.90
20714;DHT22;10518;50.742;4.226;2022-07-29T02:18:24;18.60;99.90
20714;DHT22;10518;50.742;4.226;2022-07-29T02:20:54;18.60;99.90
20714;DHT22;10518;50.742;4.226;2022-07-29T02:23:24;18.60;99.90
20714;DHT22;10518;50.742;4.226;2022-07-29T02:25:56;18.60;99.90
20714;DHT22;10518;50.742;4.226;2022-07-29T02:28:24;18.50;99.90
20714;DHT22;10518;50.742;4.226;2022-07-29T02:30:52;18.60;99.90
20714;DHT22;10518;50.742;4.226;2022-07-29T02:33:18;18.60;99.90
20714;DHT22;10518;50.742;4.226;2022-07-29T02:35:46;18.70;99.90
20714;DHT22;10518;50.742;4.226;2022-07-29T02:38:14;18.90;99.90
20714;DHT22;10518;50.742;4.226;2022-07-29T02:41:01;18.70;99.90
20714;DHT22;10518;50.742;4.226;2022-07-29T02:43:30;18.70;99.90
20714;DHT22;10518;50.742;4.226;2022-07-29T02:45:58;18.60;99.90
20714;DHT22;10518;50.742;4.226;2022-07-29T02:48:30;18.60;99.90
20714;DHT22;10518;50.742;4.226;2022-07-29T02:51:04;18.70;99.90
20714;DHT22;10518;50.742;4.226;2022-07-29T02:53:33;18.60;99.90
20714;DHT22;10518;50.742;4.226;2022-07-29T02:56:06;18.40;99.90
20714;DHT22;10518;50.742;4.226;2022-07-29T02:58:35;18.40;99.90
20714;DHT22;10518;50.742;4.226;2022-07-29T03:01:16;18.30;99.90
20714;DHT22;10518;50.742;4.226;2022-07-29T03:03:44;18.30;99.90
20714;DHT22;10518;50.742;4.226;2022-07-29T03:06:12;18.40;99.90
20714;DHT22;10518;50.742;4.226;2022-07-29T03:08:39;18.30;99.90
20714;DHT22;10518;50.742;4.226;2022-07-29T03:11:05;18.30;99.90
20714;DHT22;10518;50.742;4.226;2022-07-29T03:13:31;18.20;99.90
20714;DHT22;10518;50.742;4.226;2022-07-29T03:15:57;18.20;99.90
20714;DHT22;10518;50.742;4.226;2022-07-29T03:18:24;18.20;99.90
20714;DHT22;10518;50.742;4.226;2022-07-29T03:20:50;18.10;99.90
20714;DHT22;10518;50.742;4.226;2022-07-29T03:23:23;18.20;99.90
20714;DHT22;10518;50.742;4.226;2022-07-29T03:25:52;18.10;99.90
20714;DHT22;10518;50.742;4.226;2022-07-29T03:28:19;18.10;99.90
20714;DHT22;10518;50.742;4.226;2022-07-29T03:30:45;18.10;99.90
20714;DHT22;10518;50.742;4.226;2022-07-29T03:33:11;18.20;99.90
20714;DHT22;10518;50.742;4.226;2022-07-29T03:35:37;18.00;99.90
20714;DHT22;10518;50.742;4.226;2022-07-29T03:38:02;18.00;99.90
20714;DHT22;10518;50.742;4.226;2022-07-29T03:43:17;17.90;99.90
20714;DHT22;10518;50.742;4.226;2022-07-29T03:45:47;17.80;99.90
20714;DHT22;10518;50.742;4.226;2022-07-29T03:48:16;17.80;99.90
20714;DHT22;10518;50.742;4.226;2022-07-29T03:50:43;17.70;99.90
20714;DHT22;10518;50.742;4.226;2022-07-29T03:53:08;17.70;99.90
20714;DHT22;10518;50.742;4.226;2022-07-29T03:55:41;17.70;99.90
20714;DHT22;10518;50.742;4.226;2022-07-29T03:58:07;17.60;99.90
20714;DHT22;10518;50.742;4.226;2022-07-29T04:00:34;17.60;99.90
20714;DHT22;10518;50.742;4.226;2022-07-29T04:03:01;17.50;99.90
20714;DHT22;10518;50.742;4.226;2022-07-29T04:05:28;17.60;99.90
20714;DHT22;10518;50.742;4.226;2022-07-29T04:07:54;17.60;99.90
20714;DHT22;10518;50.742;4.226;2022-07-29T04:10:19;17.60;99.90
20714;DHT22;10518;50.742;4.226;2022-07-29T04:12:45;17.60;99.90
20714;DHT22;10518;50.742;4.226;2022-07-29T04:15:11;17.60;99.90
20714;DHT22;10518;50.742;4.226;2022-07-29T04:17:37;17.60;99.90
20714;DHT22;10518;50.742;4.226;2022-07-29T04:20:03;17.70;99.90
20714;DHT22;10518;50.742;4.226;2022-07-29T04:22:29;17.70;99.90
20714;DHT22;10518;50.742;4.226;2022-07-29T04:24:55;17.60;99.90
20714;DHT22;10518;50.742;4.226;2022-07-29T04:27:20;17.60;99.90
20714;DHT22;10518;50.742;4.226;2022-07-29T04:29:46;17.60;99.90
20714;DHT22;10518;50.742;4.226;2022-07-29T04:32:11;17.60;99.90
20714;DHT22;10518;50.742;4.226;2022-07-29T04:34:37;17.40;99.90
20714;DHT22;10518;50.742;4.226;2022-07-29T04:37:03;17.50;99.90
20714;DHT22;10518;50.742;4.226;2022-07-29T04:39:29;17.50;99.90
20714;DHT22;10518;50.742;4.226;2022-07-29T04:41:54;17.50;99.90
20714;DHT22;10518;50.742;4.226;2022-07-29T04:44:20;17.60;99.90
20714;DHT22;10518;50.742;4.226;2022-07-29T04:46:46;17.50;99.90
20714;DHT22;10518;50.742;4.226;2022-07-29T04:49:11;17.50;99.90
20714;DHT22;10518;50.742;4.226;2022-07-29T04:51:37;17.50;99.90
20714;DHT22;10518;50.742;4.226;2022-07-29T04:54:03;17.40;99.90
20714;DHT22;10518;50.742;4.226;2022-07-29T04:56:28;17.50;99.90
20714;DHT22;10518;50.742;4.226;2022-07-29T04:58:54;17.50;99.90
20714;DHT22;10518;50.742;4.226;2022-07-29T05:01:20;17.50;99.90
20714;DHT22;10518;50.742;4.226;2022-07-29T05:03:46;17.60;99.90
20714;DHT22;10518;50.742;4.226;2022-07-29T05:06:11;17.60;99.90
20714;DHT22;10518;50.742;4.226;2022-07-29T05:08:37;17.70;99.90
20714;DHT22;10518;50.742;4.226;2022-07-29T05:11:03;17.90;99.90
20714;DHT22;10518;50.742;4.226;2022-07-29T05:13:29;17.90;99.90
20714;DHT22;10518;50.742;4.226;2022-07-29T05:15:55;18.00;99.90
20714;DHT22;10518;50.742;4.226;2022-07-29T05:18:24;18.00;99.90
20714;DHT22;10518;50.742;4.226;2022-07-29T05:20:49;18.10;99.90
20714;DHT22;10518;50.742;4.226;2022-07-29T05:23:15;18.30;99.90
20714;DHT22;10518;50.742;4.226;2022-07-29T05:25:41;18.60;99.90
20714;DHT22;10518;50.742;4.226;2022-07-29T05:28:07;18.70;99.90
20714;DHT22;10518;50.742;4.226;2022-07-29T05:30:32;18.70;99.90
20714;DHT22;10518;50.742;4.226;2022-07-29T05:32:58;18.70;99.90
20714;DHT22;10518;50.742;4.226;2022-07-29T05:35:23;18.80;99.90
20714;DHT22;10518;50.742;4.226;2022-07-29T05:37:49;18.90;99.90
20714;DHT22;10518;50.742;4.226;2022-07-29T05:40:15;19.00;99.90
20714;DHT22;10518;50.742;4.226;2022-07-29T05:42:41;19.00;99.90
20714;DHT22;10518;50.742;4.226;2022-07-29T05:45:07;19.30;99.90
20714;DHT22;10518;50.742;4.226;2022-07-29T05:47:33;19.50;99.90
20714;DHT22;10518;50.742;4.226;2022-07-29T05:49:59;19.80;99.90
20714;DHT22;10518;50.742;4.226;2022-07-29T05:52:24;20.20;99.90
20714;DHT22;10518;50.742;4.226;2022-07-29T05:54:50;20.50;99.90
20714;DHT22;10518;50.742;4.226;2022-07-29T05:57:21;21.00;99.90
20714;DHT22;10518;50.742;4.226;2022-07-29T05:59:47;22.00;99.90
20714;DHT22;10518;50.742;4.226;2022-07-29T06:02:14;22.80;99.90
20714;DHT22;10518;50.742;4.226;2022-07-29T06:04:39;23.90;99.90
20714;DHT22;10518;50.742;4.226;2022-07-29T06:07:05;24.70;99.90
20714;DHT22;10518;50.742;4.226;2022-07-29T06:09:32;25.60;99.90
20714;DHT22;10518;50.742;4.226;2022-07-29T06:11:57;26.20;99.90
20714;DHT22;10518;50.742;4.226;2022-07-29T06:14:24;26.50;99.90
20714;DHT22;10518;50.742;4.226;2022-07-29T06:16:49;27.40;99.90
20714;DHT22;10518;50.742;4.226;2022-07-29T06:19:15;27.90;99.90
20714;DHT22;10518;50.742;4.226;2022-07-29T06:21:45;28.40;99.90
20714;DHT22;10518;50.742;4.226;2022-07-29T06:24:11;28.60;99.90
20714;DHT22;10518;50.742;4.226;2022-07-29T06:26:38;28.90;99.10
20714;DHT22;10518;50.742;4.226;2022-07-29T06:29:04;28.90;98.70
20714;DHT22;10518;50.742;4.226;2022-07-29T06:31:30;29.30;97.90
20714;DHT22;10518;50.742;4.226;2022-07-29T06:33:55;29.20;98.00
20714;DHT22;10518;50.742;4.226;2022-07-29T06:36:21;29.40;98.30
20714;DHT22;10518;50.742;4.226;2022-07-29T06:38:47;29.70;97.60
20714;DHT22;10518;50.742;4.226;2022-07-29T06:41:12;30.00;96.90
20714;DHT22;10518;50.742;4.226;2022-07-29T06:43:42;29.80;96.60
20714;DHT22;10518;50.742;4.226;2022-07-29T06:46:11;29.50;96.60
20714;DHT22;10518;50.742;4.226;2022-07-29T06:48:39;28.90;97.10
20714;DHT22;10518;50.742;4.226;2022-07-29T06:51:06;28.30;97.90
20714;DHT22;10518;50.742;4.226;2022-07-29T06:53:32;28.00;97.70
20714;DHT22;10518;50.742;4.226;2022-07-29T06:56:02;27.40;98.50
20714;DHT22;10518;50.742;4.226;2022-07-29T06:58:28;26.60;99.50
20714;DHT22;10518;50.742;4.226;2022-07-29T07:00:55;26.10;99.90
20714;DHT22;10518;50.742;4.226;2022-07-29T07:03:21;26.00;99.90
20714;DHT22;10518;50.742;4.226;2022-07-29T07:05:48;25.60;99.90
20714;DHT22;10518;50.742;4.226;2022-07-29T07:08:13;25.30;99.90
20714;DHT22;10518;50.742;4.226;2022-07-29T07:10:41;25.50;99.90
20714;DHT22;10518;50.742;4.226;2022-07-29T07:13:07;25.70;99.90
20714;DHT22;10518;50.742;4.226;2022-07-29T07:15:33;25.90;99.90
20714;DHT22;10518;50.742;4.226;2022-07-29T07:17:59;26.30;99.90
20714;DHT22;10518;50.742;4.226;2022-07-29T07:20:25;26.70;99.90
20714;DHT22;10518;50.742;4.226;2022-07-29T07:22:50;27.00;99.90
20714;DHT22;10518;50.742;4.226;2022-07-29T07:25:16;27.40;99.90
20714;DHT22;10518;50.742;4.226;2022-07-29T07:27:43;27.90;99.50
20714;DHT22;10518;50.742;4.226;2022-07-29T07:30:09;28.40;98.60
20714;DHT22;10518;50.742;4.226;2022-07-29T07:32:35;28.80;98.10
20714;DHT22;10518;50.742;4.226;2022-07-29T07:35:03;29.30;97.90
20714;DHT22;10518;50.742;4.226;2022-07-29T07:37:29;29.70;98.10
20714;DHT22;10518;50.742;4.226;2022-07-29T07:39:54;29.90;97.40
20714;DHT22;10518;50.742;4.226;2022-07-29T07:42:20;30.10;97.30
20714;DHT22;10518;50.742;4.226;2022-07-29T07:44:46;30.80;96.30
20714;DHT22;10518;50.742;4.226;2022-07-29T07:47:13;31.20;96.10
20714;DHT22;10518;50.742;4.226;2022-07-29T07:49:39;31.70;95.00
20714;DHT22;10518;50.742;4.226;2022-07-29T07:52:05;31.40;95.20
20714;DHT22;10518;50.742;4.226;2022-07-29T07:54:31;30.80;95.80
20714;DHT22;10518;50.742;4.226;2022-07-29T07:56:56;31.30;95.30
20714;DHT22;10518;50.742;4.226;2022-07-29T07:59:22;31.50;95.00
20714;DHT22;10518;50.742;4.226;2022-07-29T08:01:48;31.90;94.80
20714;DHT22;10518;50.742;4.226;2022-07-29T08:04:14;31.70;94.70
20714;DHT22;10518;50.742;4.226;2022-07-29T08:06:39;31.80;94.20
20714;DHT22;10518;50.742;4.226;2022-07-29T08:09:05;31.60;94.60
20714;DHT22;10518;50.742;4.226;2022-07-29T08:11:31;31.70;94.50
20714;DHT22;10518;50.742;4.226;2022-07-29T08:13:57;31.90;93.90
20714;DHT22;10518;50.742;4.226;2022-07-29T08:16:23;31.20;94.30
20714;DHT22;10518;50.742;4.226;2022-07-29T08:18:51;30.20;95.30
20714;DHT22;10518;50.742;4.226;2022-07-29T08:21:17;29.70;95.90
20714;DHT22;10518;50.742;4.226;2022-07-29T08:23:44;29.30;96.00
20714;DHT22;10518;50.742;4.226;2022-07-29T08:26:16;28.60;96.70
20714;DHT22;10518;50.742;4.226;2022-07-29T08:28:43;28.10;97.10
20714;DHT22;10518;50.742;4.226;2022-07-29T08:31:15;27.80;98.00
20714;DHT22;10518;50.742;4.226;2022-07-29T08:33:41;27.40;98.70
20714;DHT22;10518;50.742;4.226;2022-07-29T08:36:07;27.00;99.30
20714;DHT22;10518;50.742;4.226;2022-07-29T08:38:33;26.70;99.40
20714;DHT22;10518;50.742;4.226;2022-07-29T08:41:00;26.00;99.90
20714;DHT22;10518;50.742;4.226;2022-07-29T08:43:27;25.60;99.90
20714;DHT22;10518;50.742;4.226;2022-07-29T08:45:53;25.50;99.90
20714;DHT22;10518;50.742;4.226;2022-07-29T08:48:22;26.00;99.90
20714;DHT22;10518;50.742;4.226;2022-07-29T08:50:52;25.90;99.90
20714;DHT22;10518;50.742;4.226;2022-07-29T08:53:18;26.20;99.90
20714;DHT22;10518;50.742;4.226;2022-07-29T08:55:48;26.00;99.90
20714;DHT22;10518;50.742;4.226;2022-07-29T08:58:16;25.50;99.90
20714;DHT22;10518;50.742;4.226;2022-07-29T09:00:49;25.80;99.90
20714;DHT22;10518;50.742;4.226;2022-07-29T09:03:18;26.00;99.90
20714;DHT22;10518;50.742;4.226;2022-07-29T09:05:48;26.00;99.90
20714;DHT22;10518;50.742;4.226;2022-07-29T09:08:15;25.40;99.90
20714;DHT22;10518;50.742;4.226;2022-07-29T09:10:41;25.30;99.90
20714;DHT22;10518;50.742;4.226;2022-07-29T09:13:07;25.60;99.90
20714;DHT22;10518;50.742;4.226;2022-07-29T09:15:33;25.80;99.90
20714;DHT22;10518;50.742;4.226;2022-07-29T09:17:59;25.70;99.90
20714;DHT22;10518;50.742;4.226;2022-07-29T09:20:25;25.80;99.90
20714;DHT22;10518;50.742;4.226;2022-07-29T09:22:52;26.00;99.90
20714;DHT22;10518;50.742;4.226;2022-07-29T09:25:38;26.00;99.90
20714;DHT22;10518;50.742;4.226;2022-07-29T09:28:15;26.10;99.90
20714;DHT22;10518;50.742;4.226;2022-07-29T09:30:57;25.90;99.90
20714;DHT22;10518;50.742;4.226;2022-07-29T09:33:33;25.60;99.90
20714;DHT22;10518;50.742;4.226;2022-07-29T09:36:07;25.40;99.90
20714;DHT22;10518;50.742;4.226;2022-07-29T09:38:33;25.20;99.90
20714;DHT22;10518;50.742;4.226;2022-07-29T09:41:01;25.20;99.90
20714;DHT22;10518;50.742;4.226;2022-07-29T09:43:27;25.10;99.90
20714;DHT22;10518;50.742;4.226;2022-07-29T09:45:53;25.00;99.90
20714;DHT22;10518;50.742;4.226;2022-07-29T09:48:24;25.20;99.90
20714;DHT22;10518;50.742;4.226;2022-07-29T09:50:50;25.60;99.90
20714;DHT22;10518;50.742;4.226;2022-07-29T09:55:55;25.30;99.90
20714;DHT22;10518;50.742;4.226;2022-07-29T09:58:21;25.10;99.90
20714;DHT22;10518;50.742;4.226;2022-07-29T10:00:50;25.40;99.90
20714;DHT22;10518;50.742;4.226;2022-07-29T10:03:16;25.20;99.90
20714;DHT22;10518;50.742;4.226;2022-07-29T10:05:42;25.70;99.90
20714;DHT22;10518;50.742;4.226;2022-07-29T10:08:12;25.90;99.90
20714;DHT22;10518;50.742;4.226;2022-07-29T10:10:42;26.30;99.90
20714;DHT22;10518;50.742;4.226;2022-07-29T10:13:13;26.50;99.90
20714;DHT22;10518;50.742;4.226;2022-07-29T10:15:41;26.20;99.50
20714;DHT22;10518;50.742;4.226;2022-07-29T10:18:10;26.10;99.90
20714;DHT22;10518;50.742;4.226;2022-07-29T10:20:37;26.30;99.50
20714;DHT22;10518;50.742;4.226;2022-07-29T10:23:03;26.70;99.10
20714;DHT22;10518;50.742;4.226;2022-07-29T10:25:30;26.70;99.30
20714;DHT22;10518;50.742;4.226;2022-07-29T10:27:56;26.80;98.90
20714;DHT22;10518;50.742;4.226;2022-07-29T10:30:22;26.30;99.30
20714;DHT22;10518;50.742;4.226;2022-07-29T10:43:45;26.50;98.50
20714;DHT22;10518;50.742;4.226;2022-07-29T10:46:11;26.60;98.20
20714;DHT22;10518;50.742;4.226;2022-07-29T10:49:10;26.60;98.40
20714;DHT22;10518;50.742;4.226;2022-07-29T10:51:56;25.90;99.40
20714;DHT22;10518;50.742;4.226;2022-07-29T10:57:15;26.00;99.20
20714;DHT22;10518;50.742;4.226;2022-07-29T10:59:43;26.30;98.60
20714;DHT22;10518;50.742;4.226;2022-07-29T11:07:32;26.30;98.30
20714;DHT22;10518;50.742;4.226;2022-07-29T11:15:11;26.30;97.90
20714;DHT22;10518;50.742;4.226;2022-07-29T11:23:21;26.10;98.70
20714;DHT22;10518;50.742;4.226;2022-07-29T11:26:19;26.20;96.50
20714;DHT22;10518;50.742;4.226;2022-07-29T11:31:49;26.70;96.70
20714;DHT22;10518;50.742;4.226;2022-07-29T11:34:30;26.50;96.60
20714;DHT22;10518;50.742;4.226;2022-07-29T11:39:42;26.30;96.20
20714;DHT22;10518;50.742;4.226;2022-07-29T11:45:03;26.50;95.00
20714;DHT22;10518;50.742;4.226;2022-07-29T11:47:37;26.40;95.70
20714;DHT22;10518;50.742;4.226;2022-07-29T11:50:07;26.20;95.70
20714;DHT22;10518;50.742;4.226;2022-07-29T11:52:45;26.20;95.40
20714;DHT22;10518;50.742;4.226;2022-07-29T11:55:19;26.70;95.10
20714;DHT22;10518;50.742;4.226;2022-07-29T11:57:55;26.70;96.10
20714;DHT22;10518;50.742;4.226;2022-07-29T12:00:41;26.80;96.60
20714;DHT22;10518;50.742;4.226;2022-07-29T12:03:12;26.80;96.30
20714;DHT22;10518;50.742;4.226;2022-07-29T12:05:48;26.60;97.00
20714;DHT22;10518;50.742;4.226;2022-07-29T12:08:14;26.70;96.80
20714;DHT22;10518;50.742;4.226;2022-07-29T12:10:46;26.70;96.90
20714;DHT22;10518;50.742;4.226;2022-07-29T12:13:13;26.80;97.70
20714;DHT22;10518;50.742;4.226;2022-07-29T12:15:40;27.30;96.40
20714;DHT22;10518;50.742;4.226;2022-07-29T12:18:20;27.70;96.00
20714;DHT22;10518;50.742;4.226;2022-07-29T12:20:46;28.00;94.90
20714;DHT22;10518;50.742;4.226;2022-07-29T12:23:14;28.10;94.30
20714;DHT22;10518;50.742;4.226;2022-07-29T12:25:41;28.00;95.20
20714;DHT22;10518;50.742;4.226;2022-07-29T12:28:09;28.10;94.40
20714;DHT22;10518;50.742;4.226;2022-07-29T12:30:40;28.10;94.50
20714;DHT22;10518;50.742;4.226;2022-07-29T12:33:23;28.00;93.80
20714;DHT22;10518;50.742;4.226;2022-07-29T12:35:55;28.10;93.80
20714;DHT22;10518;50.742;4.226;2022-07-29T12:38:21;28.10;93.10
20714;DHT22;10518;50.742;4.226;2022-07-29T12:40:48;28.00;93.50
20714;DHT22;10518;50.742;4.226;2022-07-29T12:43:16;27.80;94.40
20714;DHT22;10518;50.742;4.226;2022-07-29T12:45:45;27.80;94.20
20714;DHT22;10518;50.742;4.226;2022-07-29T12:48:11;27.80;94.40
20714;DHT22;10518;50.742;4.226;2022-07-29T12:50:53;27.80;94.40
20714;DHT22;10518;50.742;4.226;2022-07-29T12:53:19;28.00;94.90
20714;DHT22;10518;50.742;4.226;2022-07-29T12:55:46;28.00;94.80
20714;DHT22;10518;50.742;4.226;2022-07-29T12:58:26;27.90;94.10
20714;DHT22;10518;50.742;4.226;2022-07-29T13:01:16;27.70;94.60
20714;DHT22;10518;50.742;4.226;2022-07-29T13:06:47;27.40;95.60
20714;DHT22;10518;50.742;4.226;2022-07-29T13:09:20;27.50;95.10
20714;DHT22;10518;50.742;4.226;2022-07-29T13:11:51;27.50;95.60
20714;DHT22;10518;50.742;4.226;2022-07-29T13:14:39;27.70;95.50
20714;DHT22;10518;50.742;4.226;2022-07-29T13:19:40;27.70;95.90
20714;DHT22;10518;50.742;4.226;2022-07-29T13:22:07;27.80;94.90
20714;DHT22;10518;50.742;4.226;2022-07-29T13:24:33;28.00;94.30
20714;DHT22;10518;50.742;4.226;2022-07-29T13:26:58;27.90;94.70
20714;DHT22;10518;50.742;4.226;2022-07-29T13:29:24;28.10;94.30
20714;DHT22;10518;50.742;4.226;2022-07-29T13:31:51;28.10;93.70
20714;DHT22;10518;50.742;4.226;2022-07-29T13:34:17;27.70;94.20
20714;DHT22;10518;50.742;4.226;2022-07-29T13:36:45;27.50;94.40
20714;DHT22;10518;50.742;4.226;2022-07-29T13:39:10;27.70;94.30
20714;DHT22;10518;50.742;4.226;2022-07-29T13:41:36;27.70;93.80
20714;DHT22;10518;50.742;4.226;2022-07-29T13:44:02;27.90;94.30
20714;DHT22;10518;50.742;4.226;2022-07-29T13:46:28;27.90;93.60
20714;DHT22;10518;50.742;4.226;2022-07-29T13:48:53;27.90;94.00
20714;DHT22;10518;50.742;4.226;2022-07-29T13:51:19;28.00;92.70
20714;DHT22;10518;50.742;4.226;2022-07-29T13:53:45;28.00;92.00
20714;DHT22;10518;50.742;4.226;2022-07-29T13:56:10;28.00;92.50
20714;DHT22;10518;50.742;4.226;2022-07-29T13:58:36;27.70;92.90
20714;DHT22;10518;50.742;4.226;2022-07-29T14:01:02;27.70;93.30
20714;DHT22;10518;50.742;4.226;2022-07-29T14:03:28;27.80;92.70
20714;DHT22;10518;50.742;4.226;2022-07-29T14:05:54;27.80;92.60
20714;DHT22;10518;50.742;4.226;2022-07-29T14:08:21;28.00;92.40
20714;DHT22;10518;50.742;4.226;2022-07-29T14:10:47;28.10;92.00
20714;DHT22;10518;50.742;4.226;2022-07-29T14:13:15;28.10;91.20
20714;DHT22;10518;50.742;4.226;2022-07-29T14:15:41;28.00;92.00
20714;DHT22;10518;50.742;4.226;2022-07-29T14:18:07;28.10;92.70
20714;DHT22;10518;50.742;4.226;2022-07-29T14:20:32;28.30;92.20
20714;DHT22;10518;50.742;4.226;2022-07-29T14:22:58;28.10;92.50
20714;DHT22;10518;50.742;4.226;2022-07-29T14:25:23;28.20;92.20
20714;DHT22;10518;50.742;4.226;2022-07-29T14:27:49;28.10;92.30
20714;DHT22;10518;50.742;4.226;2022-07-29T14:30:15;28.10;92.50
20714;DHT22;10518;50.742;4.226;2022-07-29T14:32:41;28.40;92.60
20714;DHT22;10518;50.742;4.226;2022-07-29T14:35:07;28.40;92.30
20714;DHT22;10518;50.742;4.226;2022-07-29T14:37:33;27.90;92.80
20714;DHT22;10518;50.742;4.226;2022-07-29T14:39:59;27.40;93.30
20714;DHT22;10518;50.742;4.226;2022-07-29T14:42:28;27.30;93.60
20714;DHT22;10518;50.742;4.226;2022-07-29T14:44:53;27.50;93.60
20714;DHT22;10518;50.742;4.226;2022-07-29T14:47:19;27.70;93.80
20714;DHT22;10518;50.742;4.226;2022-07-29T14:49:45;27.90;93.10
20714;DHT22;10518;50.742;4.226;2022-07-29T14:52:10;27.80;92.80
20714;DHT22;10518;50.742;4.226;2022-07-29T14:54:36;27.60;92.70
20714;DHT22;10518;50.742;4.226;2022-07-29T14:57:01;27.70;93.30
20714;DHT22;10518;50.742;4.226;2022-07-29T14:59:27;27.80;92.70
20714;DHT22;10518;50.742;4.226;2022-07-29T15:01:53;27.90;92.80
20714;DHT22;10518;50.742;4.226;2022-07-29T15:04:18;27.90;92.20
20714;DHT22;10518;50.742;4.226;2022-07-29T15:06:44;28.00;92.60
20714;DHT22;10518;50.742;4.226;2022-07-29T15:09:10;28.00;92.20
20714;DHT22;10518;50.742;4.226;2022-07-29T15:11:35;27.80;91.90
20714;DHT22;10518;50.742;4.226;2022-07-29T15:14:01;27.80;91.80
20714;DHT22;10518;50.742;4.226;2022-07-29T15:16:26;27.50;92.00
20714;DHT22;10518;50.742;4.226;2022-07-29T15:18:52;27.50;91.90
20714;DHT22;10518;50.742;4.226;2022-07-29T15:21:18;27.20;92.20
20714;DHT22;10518;50.742;4.226;2022-07-29T15:23:43;27.50;92.00
20714;DHT22;10518;50.742;4.226;2022-07-29T15:26:09;27.30;92.40
20714;DHT22;10518;50.742;4.226;2022-07-29T15:28:35;27.20;92.20
20714;DHT22;10518;50.742;4.226;2022-07-29T15:31:00;27.10;93.20
20714;DHT22;10518;50.742;4.226;2022-07-29T15:33:26;27.40;92.20
20714;DHT22;10518;50.742;4.226;2022-07-29T15:35:52;27.60;91.50
20714;DHT22;10518;50.742;4.226;2022-07-29T15:38:17;27.60;91.90
20714;DHT22;10518;50.742;4.226;2022-07-29T15:40:43;27.60;92.00
20714;DHT22;10518;50.742;4.226;2022-07-29T15:43:09;27.70;92.70
20714;DHT22;10518;50.742;4.226;2022-07-29T15:45:41;27.90;92.40
20714;DHT22;10518;50.742;4.226;2022-07-29T15:48:08;28.20;92.10
20714;DHT22;10518;50.742;4.226;2022-07-29T15:50:34;28.40;92.00
20714;DHT22;10518;50.742;4.226;2022-07-29T15:53:00;28.40;91.30
20714;DHT22;10518;50.742;4.226;2022-07-29T15:55:26;28.40;91.30
20714;DHT22;10518;50.742;4.226;2022-07-29T15:57:51;28.40;91.60
20714;DHT22;10518;50.742;4.226;2022-07-29T16:00:17;28.20;91.90
20714;DHT22;10518;50.742;4.226;2022-07-29T16:02:44;28.00;91.40
20714;DHT22;10518;50.742;4.226;2022-07-29T16:05:10;27.90;91.80
20714;DHT22;10518;50.742;4.226;2022-07-29T16:07:35;27.90;91.80
20714;DHT22;10518;50.742;4.226;2022-07-29T16:10:02;28.00;91.80
20714;DHT22;10518;50.742;4.226;2022-07-29T16:12:28;28.10;91.80
20714;DHT22;10518;50.742;4.226;2022-07-29T16:14:53;28.20;91.10
20714;DHT22;10518;50.742;4.226;2022-07-29T16:17:19;28.20;91.60
20714;DHT22;10518;50.742;4.226;2022-07-29T16:19:45;28.20;91.60
20714;DHT22;10518;50.742;4.226;2022-07-29T16:22:11;28.00;92.00
20714;DHT22;10518;50.742;4.226;2022-07-29T16:24:36;28.00;92.00
20714;DHT22;10518;50.742;4.226;2022-07-29T16:27:03;28.00;91.60
20714;DHT22;10518;50.742;4.226;2022-07-29T16:29:29;28.10;91.40
20714;DHT22;10518;50.742;4.226;2022-07-29T16:31:54;28.00;91.50
20714;DHT22;10518;50.742;4.226;2022-07-29T16:34:20;28.00;91.70
20714;DHT22;10518;50.742;4.226;2022-07-29T16:36:46;28.10;92.00
20714;DHT22;10518;50.742;4.226;2022-07-29T16:39:11;28.00;91.90